Aviation Digital Data Service (ADDS)

Output produced by METARs form (0132 UTC 27 November 2014)
found at http://aviationweather.gov/adds/metars/
 
KGMU 270043Z 2701/2724 20007KT P6SM SCT050 BKN110 
     FM270800 25003KT P6SM SCT110 
     FM271100 25007KT P6SM SCT050 
     FM271600 29011G18KT P6SM FEW050 
     FM272300 34007KT P6SM SCT250